<?xml version="1.0" encoding="UTF-8" standalone="no" ?>
<gpx xmlns="http://www.topografix.com/GPX/1/1" xmlns:xsi="http://www.w3.org/2001/XMLSchema-instance" xsi:schemaLocation="http://www.topografix.com/GPX/1/1 http://www.topografix.com/GPX/1/1/gpx.xsd" version="1.1" creator="VisuGPX - https://www.visugpx.com">
  <metadata>
    <name>65 - PEDESTRE - La fruitière au lac d\'Estom et retour</name>
    <desc><![CDATA[Petite sortie]]></desc>
  </metadata>
  <wpt lat="42.85205" lon="-0.09777">
    <ele>1541.107421875</ele>
    <name><![CDATA[001]]></name>
    <desc><![CDATA[09-JUL-15 10:54:57]]></desc>
    <cmt><![CDATA[09-JUL-15 10:54:57]]></cmt>
  </wpt>
  <wpt lat="42.80774" lon="-0.09945">
    <ele>1783.8386230469</ele>
    <name><![CDATA[002]]></name>
    <desc><![CDATA[09-JUL-15 11:40:35]]></desc>
    <cmt><![CDATA[09-JUL-15 11:40:35]]></cmt>
  </wpt>
  <wpt lat="42.85352" lon="-0.09853">
    <ele>1369.1</ele>
    <name><![CDATA[La Fruitière]]></name>
    <desc><![CDATA[La Fruitière]]></desc>
    <cmt><![CDATA[La Fruitière]]></cmt>
  </wpt>
  <wpt lat="42.80625" lon="-0.09995">
    <ele>1802</ele>
    <name><![CDATA[Lac D'Estom]]></name>
    <desc><![CDATA[Lac D'Estom]]></desc>
    <cmt><![CDATA[Lac D'Estom]]></cmt>
  </wpt>
  <wpt lat="42.853" lon="-0.09797">
    <ele>1365.2</ele>
    <name><![CDATA[Parking]]></name>
    <desc><![CDATA[Parking la Fruitière 1371m]]></desc>
    <cmt><![CDATA[Parking la Fruitière 1371m]]></cmt>
  </wpt>
  <wpt lat="42.80846" lon="-0.09922">
    <ele>1796.9</ele>
    <name><![CDATA[Refuge D'Estom]]></name>
    <desc><![CDATA[Refuge D'Estom (Hôtellerie)]]></desc>
    <cmt><![CDATA[Refuge D'Estom (Hôtellerie)]]></cmt>
  </wpt>
  <trk>
    <name><![CDATA[ACTIVE LOG 006]]></name>
    <trkseg>
      <trkpt lat="42.81734" lon="-0.09808">
        <ele>1615.15234375</ele>
        <time>2015-07-09T09:16:16Z</time>
      </trkpt>
      <trkpt lat="42.81734" lon="-0.09808">
        <ele>1615.15234375</ele>
        <time>2015-07-09T09:16:18Z</time>
      </trkpt>
      <trkpt lat="42.81734" lon="-0.09808">
        <ele>1614.1909179688</ele>
        <time>2015-07-09T09:16:21Z</time>
      </trkpt>
      <trkpt lat="42.81734" lon="-0.09808">
        <ele>1617.5554199219</ele>
        <time>2015-07-09T09:16:38Z</time>
      </trkpt>
      <trkpt lat="42.81734" lon="-0.09808">
        <ele>1620.439453125</ele>
        <time>2015-07-09T09:17:01Z</time>
      </trkpt>
      <trkpt lat="42.81734" lon="-0.09808">
        <ele>1624.7653808594</ele>
        <time>2015-07-09T09:17:38Z</time>
      </trkpt>
      <trkpt lat="42.81734" lon="-0.09808">
        <ele>1628.6108398438</ele>
        <time>2015-07-09T09:18:00Z</time>
      </trkpt>
      <trkpt lat="42.81734" lon="-0.09808">
        <ele>1631.4946289062</ele>
        <time>2015-07-09T09:18:20Z</time>
      </trkpt>
      <trkpt lat="42.81734" lon="-0.09808">
        <ele>1634.859375</ele>
        <time>2015-07-09T09:18:44Z</time>
      </trkpt>
      <trkpt lat="42.81734" lon="-0.09808">
        <ele>1637.7431640625</ele>
        <time>2015-07-09T09:19:17Z</time>
      </trkpt>
      <trkpt lat="42.81734" lon="-0.09808">
        <ele>1641.1076660156</ele>
        <time>2015-07-09T09:19:41Z</time>
      </trkpt>
      <trkpt lat="42.81734" lon="-0.09808">
        <ele>1644.953125</ele>
        <time>2015-07-09T09:20:01Z</time>
      </trkpt>
      <trkpt lat="42.81734" lon="-0.09808">
        <ele>1647.8371582031</ele>
        <time>2015-07-09T09:20:19Z</time>
      </trkpt>
      <trkpt lat="42.81734" lon="-0.09808">
        <ele>1651.2016601562</ele>
        <time>2015-07-09T09:20:35Z</time>
      </trkpt>
      <trkpt lat="42.81734" lon="-0.09808">
        <ele>1654.0856933594</ele>
        <time>2015-07-09T09:20:55Z</time>
      </trkpt>
      <trkpt lat="42.81734" lon="-0.09808">
        <ele>1657.4501953125</ele>
        <time>2015-07-09T09:21:17Z</time>
      </trkpt>
      <trkpt lat="42.81734" lon="-0.09808">
        <ele>1660.8149414062</ele>
        <time>2015-07-09T09:21:50Z</time>
      </trkpt>
      <trkpt lat="42.81734" lon="-0.09808">
        <ele>1660.3342285156</ele>
        <time>2015-07-09T09:22:03Z</time>
      </trkpt>
      <trkpt lat="42.81734" lon="-0.09808">
        <ele>1661.7763671875</ele>
        <time>2015-07-09T09:22:17Z</time>
      </trkpt>
      <trkpt lat="42.81734" lon="-0.09808">
        <ele>1665.1408691406</ele>
        <time>2015-07-09T09:22:26Z</time>
      </trkpt>
      <trkpt lat="42.81734" lon="-0.09808">
        <ele>1668.0246582031</ele>
        <time>2015-07-09T09:22:44Z</time>
      </trkpt>
      <trkpt lat="42.81734" lon="-0.09808">
        <ele>1671.3891601562</ele>
        <time>2015-07-09T09:23:04Z</time>
      </trkpt>
      <trkpt lat="42.81734" lon="-0.09808">
        <ele>1674.75390625</ele>
        <time>2015-07-09T09:23:28Z</time>
      </trkpt>
      <trkpt lat="42.81734" lon="-0.09808">
        <ele>1678.1186523438</ele>
        <time>2015-07-09T09:23:52Z</time>
      </trkpt>
      <trkpt lat="42.81734" lon="-0.09808">
        <ele>1681.4831542969</ele>
        <time>2015-07-09T09:24:52Z</time>
      </trkpt>
      <trkpt lat="42.81734" lon="-0.09808">
        <ele>1682.9250488281</ele>
        <time>2015-07-09T09:24:56Z</time>
      </trkpt>
      <trkpt lat="42.81734" lon="-0.09808">
        <ele>1683.4057617188</ele>
        <time>2015-07-09T09:25:00Z</time>
      </trkpt>
      <trkpt lat="42.81781" lon="-0.0978">
        <ele>1683.4057617188</ele>
        <time>2015-07-09T09:25:13Z</time>
      </trkpt>
      <trkpt lat="42.81762" lon="-0.09773">
        <ele>1686.2897949219</ele>
        <time>2015-07-09T09:25:30Z</time>
      </trkpt>
      <trkpt lat="42.81765" lon="-0.09795">
        <ele>1687.7316894531</ele>
        <time>2015-07-09T09:25:41Z</time>
      </trkpt>
    </trkseg>
  </trk>
</gpx>